createdAt,value
2023-04-19T00:01:17.524Z,102534.00
2023-04-19T00:03:44.921Z,102527.00
2023-04-19T00:06:15.179Z,102538.00
2023-04-19T00:08:42.454Z,102533.00
2023-04-19T00:11:10.193Z,102542.00
2023-04-19T00:13:36.784Z,102536.00
2023-04-19T00:16:03.627Z,102538.00
2023-04-19T00:18:30.211Z,102535.00
2023-04-19T00:20:56.911Z,102538.00
2023-04-19T00:23:23.759Z,102528.00
2023-04-19T00:25:50.392Z,102525.00
2023-04-19T00:28:17.169Z,102531.00
2023-04-19T00:30:43.841Z,102529.00
2023-04-19T00:33:13.088Z,102531.00
2023-04-19T00:35:42.966Z,102527.00
2023-04-19T00:38:09.684Z,102532.00
2023-04-19T00:40:37.900Z,102523.00
2023-04-19T00:43:04.600Z,102526.00
2023-04-19T00:45:33.300Z,102530.00
2023-04-19T00:48:01.533Z,102529.00
2023-04-19T00:50:28.972Z,102523.00
2023-04-19T00:52:56.307Z,102525.00
2023-04-19T00:55:23.563Z,102525.00
2023-04-19T00:57:52.301Z,102529.00
2023-04-19T01:00:20.075Z,102527.00
2023-04-19T01:02:48.012Z,102526.00
2023-04-19T01:05:15.110Z,102520.00
2023-04-19T01:07:42.652Z,102519.00
2023-04-19T01:10:09.921Z,102524.00
2023-04-19T01:12:36.623Z,102518.00
2023-04-19T01:15:03.626Z,102520.00
2023-04-19T01:17:32.384Z,102521.00
2023-04-19T01:20:00.744Z,102519.00
2023-04-19T01:22:28.323Z,102515.00
2023-04-19T01:24:55.057Z,102520.00
2023-04-19T01:27:21.925Z,102513.00
2023-04-19T01:29:48.515Z,102506.00
2023-04-19T01:32:15.301Z,102506.00
2023-04-19T01:34:44.939Z,102509.00
2023-04-19T01:37:11.548Z,102512.00
2023-04-19T01:39:38.220Z,102506.00
2023-04-19T01:42:04.992Z,102507.00
2023-04-19T01:44:31.693Z,102507.00
2023-04-19T01:46:58.355Z,102510.00
2023-04-19T01:49:25.073Z,102511.00
2023-04-19T01:51:51.776Z,102510.00
2023-04-19T01:54:18.480Z,102510.00
2023-04-19T01:56:45.138Z,102513.00
2023-04-19T01:59:11.761Z,102508.00
2023-04-19T02:01:38.421Z,102499.00
2023-04-19T02:04:05.210Z,102496.00
2023-04-19T02:06:31.988Z,102504.00
2023-04-19T02:08:59.053Z,102498.00
2023-04-19T02:11:25.721Z,102494.00
2023-04-19T02:13:52.444Z,102488.00
2023-04-19T02:16:19.124Z,102489.00
2023-04-19T02:18:46.837Z,102487.00
2023-04-19T02:21:13.772Z,102494.00
2023-04-19T02:23:41.618Z,102490.00
2023-04-19T02:26:08.229Z,102491.00
2023-04-19T02:28:34.884Z,102488.00
2023-04-19T02:31:05.190Z,102484.00
2023-04-19T02:33:31.863Z,102486.00
2023-04-19T02:35:58.480Z,102478.00
2023-04-19T02:38:25.096Z,102481.00
2023-04-19T02:40:51.797Z,102482.00
2023-04-19T02:43:18.453Z,102479.00
2023-04-19T02:45:45.087Z,102481.00
2023-04-19T02:48:11.795Z,102484.00
2023-04-19T02:50:41.159Z,102488.00
2023-04-19T02:53:07.816Z,102493.00
2023-04-19T02:55:34.462Z,102491.00
2023-04-19T02:58:01.130Z,102490.00
2023-04-19T03:00:27.743Z,102497.00
2023-04-19T03:02:56.254Z,102497.00
2023-04-19T03:05:23.654Z,102496.00
2023-04-19T03:07:50.422Z,102496.00
2023-04-19T03:10:17.325Z,102495.00
2023-04-19T03:12:43.992Z,102492.00
2023-04-19T03:15:11.278Z,102489.00
2023-04-19T03:17:38.131Z,102493.00
2023-04-19T03:20:11.850Z,102484.00
2023-04-19T03:22:38.761Z,102484.00
2023-04-19T03:25:05.892Z,102485.00
2023-04-19T03:27:34.964Z,102487.00
2023-04-19T03:30:01.666Z,102480.00
2023-04-19T03:32:28.365Z,102477.00
2023-04-19T03:34:54.971Z,102478.00
2023-04-19T03:37:21.612Z,102479.00
2023-04-19T03:39:48.152Z,102493.00
2023-04-19T03:42:14.908Z,102489.00
2023-04-19T03:44:41.496Z,102487.00
2023-04-19T03:47:08.233Z,102489.00
2023-04-19T03:49:34.877Z,102486.00
2023-04-19T03:52:01.449Z,102485.00
2023-04-19T03:54:28.090Z,102491.00
2023-04-19T03:56:54.641Z,102491.00
2023-04-19T03:59:21.300Z,102492.00
2023-04-19T04:01:47.912Z,102487.00
2023-04-19T04:04:14.934Z,102479.00
2023-04-19T04:06:42.413Z,102483.00
2023-04-19T04:09:09.205Z,102484.00
2023-04-19T04:11:35.858Z,102479.00
2023-04-19T04:14:02.442Z,102479.00
2023-04-19T04:16:29.069Z,102482.00
2023-04-19T04:18:55.873Z,102486.00
2023-04-19T04:21:24.278Z,102489.00
2023-04-19T04:23:51.582Z,102488.00
2023-04-19T04:26:20.151Z,102486.00
2023-04-19T04:28:47.178Z,102493.00
2023-04-19T04:31:13.851Z,102487.00
2023-04-19T04:33:41.744Z,102496.00
2023-04-19T04:36:09.936Z,102490.00
2023-04-19T04:38:36.982Z,102490.00
2023-04-19T04:41:03.641Z,102492.00
2023-04-19T04:43:30.287Z,102492.00
2023-04-19T04:45:58.179Z,102498.00
2023-04-19T04:48:25.455Z,102496.00
2023-04-19T04:50:52.052Z,102492.00
2023-04-19T04:53:18.749Z,102498.00
2023-04-19T04:55:45.370Z,102498.00
2023-04-19T04:58:12.012Z,102509.00
2023-04-19T05:00:38.633Z,102501.00
2023-04-19T05:03:05.490Z,102503.00
2023-04-19T05:05:32.277Z,102502.00
2023-04-19T05:07:59.260Z,102504.00
2023-04-19T05:10:25.914Z,102505.00
2023-04-19T05:12:52.628Z,102503.00
2023-04-19T05:15:19.327Z,102511.00
2023-04-19T05:17:46.082Z,102511.00
2023-04-19T05:20:12.873Z,102508.00
2023-04-19T05:22:39.583Z,102512.00
2023-04-19T05:25:06.905Z,102512.00
2023-04-19T05:27:33.553Z,102513.00
2023-04-19T05:30:00.264Z,102517.00
2023-04-19T05:32:27.566Z,102514.00
2023-04-19T05:34:54.222Z,102517.00
2023-04-19T05:37:20.782Z,102522.00
2023-04-19T05:39:47.398Z,102514.00
2023-04-19T05:42:13.982Z,102511.00
2023-04-19T05:44:40.774Z,102517.00
2023-04-19T05:47:07.427Z,102520.00
2023-04-19T05:49:34.001Z,102520.00
2023-04-19T05:52:00.678Z,102518.00
2023-04-19T05:54:28.170Z,102520.00
2023-04-19T05:56:54.731Z,102525.00
2023-04-19T05:59:21.267Z,102526.00
2023-04-19T06:01:47.932Z,102523.00
2023-04-19T06:04:14.997Z,102527.00
2023-04-19T06:06:42.034Z,102534.00
2023-04-19T06:09:08.694Z,102530.00
2023-04-19T06:11:47.110Z,102530.00
2023-04-19T06:14:17.426Z,102528.00
2023-04-19T06:16:44.528Z,102534.00
2023-04-19T06:19:11.235Z,102533.00
2023-04-19T06:21:37.931Z,102534.00
2023-04-19T06:24:07.141Z,102536.00
2023-04-19T06:26:33.886Z,102540.00
2023-04-19T06:29:01.235Z,102538.00
2023-04-19T06:31:27.975Z,102531.00
2023-04-19T06:33:54.653Z,102533.00
2023-04-19T06:36:21.231Z,102540.00
2023-04-19T06:38:48.039Z,102541.00
2023-04-19T06:41:14.817Z,102530.00
2023-04-19T06:43:42.876Z,102528.00
2023-04-19T06:46:10.033Z,102537.00
2023-04-19T06:48:36.857Z,102541.00
2023-04-19T06:51:03.596Z,102538.00
2023-04-19T06:53:30.326Z,102535.00
2023-04-19T06:56:01.778Z,102542.00
2023-04-19T06:58:29.169Z,102538.00
2023-04-19T07:00:56.272Z,102528.00
2023-04-19T07:03:23.082Z,102536.00
2023-04-19T07:05:49.905Z,102537.00
2023-04-19T07:08:16.488Z,102527.00
2023-04-19T07:10:43.963Z,102532.00
2023-04-19T07:13:13.661Z,102532.00
2023-04-19T07:15:40.325Z,102518.00
2023-04-19T07:18:07.370Z,102527.00
2023-04-19T07:20:34.311Z,102522.00
2023-04-19T07:23:01.079Z,102530.00
2023-04-19T07:25:27.902Z,102531.00
2023-04-19T07:27:55.659Z,102528.00
2023-04-19T07:30:22.481Z,102520.00
2023-04-19T07:32:51.622Z,102528.00
2023-04-19T07:35:19.513Z,102530.00
2023-04-19T07:37:46.475Z,102527.00
2023-04-19T07:40:13.455Z,102520.00
2023-04-19T07:42:40.269Z,102525.00
2023-04-19T07:45:07.481Z,102525.00
2023-04-19T07:47:34.194Z,102520.00
2023-04-19T07:50:00.862Z,102529.00
2023-04-19T07:52:27.499Z,102529.00
2023-04-19T07:54:54.188Z,102530.00
2023-04-19T07:57:20.769Z,102529.00
2023-04-19T07:59:47.355Z,102532.00
2023-04-19T08:02:14.112Z,102533.00
2023-04-19T08:04:41.323Z,102536.00
2023-04-19T08:07:09.513Z,102525.00
2023-04-19T08:09:37.977Z,102518.00
2023-04-19T08:12:04.738Z,102517.00
2023-04-19T08:14:40.363Z,102518.00
2023-04-19T08:17:25.616Z,102514.00
2023-04-19T08:19:53.800Z,102516.00
2023-04-19T08:22:21.630Z,102520.00
2023-04-19T08:24:52.053Z,102516.00
2023-04-19T08:27:19.262Z,102517.00
2023-04-19T08:29:46.534Z,102520.00
2023-04-19T08:32:13.581Z,102521.00
2023-04-19T08:34:40.694Z,102529.00
2023-04-19T08:37:07.379Z,102527.00
2023-04-19T08:39:34.996Z,102535.00
2023-04-19T08:42:17.708Z,102530.00
2023-04-19T08:45:09.531Z,102532.00
2023-04-19T08:50:24.219Z,102531.00
2023-04-19T08:53:05.200Z,102530.00
2023-04-19T08:55:39.835Z,102525.00
2023-04-19T08:58:12.309Z,102517.00
2023-04-19T09:00:45.718Z,102530.00
2023-04-19T09:03:12.631Z,102530.00
2023-04-19T09:05:39.464Z,102530.00
2023-04-19T09:08:33.539Z,102529.00
2023-04-19T09:11:02.072Z,102532.00
2023-04-19T09:13:29.997Z,102512.00
2023-04-19T09:16:04.890Z,102514.00
2023-04-19T09:18:33.204Z,102517.00
2023-04-19T09:21:02.510Z,102522.00
2023-04-19T09:23:29.173Z,102513.00
2023-04-19T09:26:22.811Z,102518.00
2023-04-19T09:28:58.189Z,102513.00
2023-04-19T09:31:43.440Z,102515.00
2023-04-19T09:34:14.862Z,102517.00
2023-04-19T09:36:41.848Z,102498.00
2023-04-19T09:39:08.734Z,102512.00
2023-04-19T09:41:38.975Z,102502.00
2023-04-19T09:46:46.513Z,102498.00
2023-04-19T09:49:27.979Z,102510.00
2023-04-19T09:52:05.493Z,102500.00
2023-04-19T09:54:32.862Z,102488.00
2023-04-19T09:57:01.673Z,102494.00
2023-04-19T09:59:28.558Z,102500.00
2023-04-19T10:01:58.494Z,102488.00
2023-04-19T10:04:43.635Z,102486.00
2023-04-19T10:09:52.993Z,102487.00
2023-04-19T10:14:58.550Z,102488.00
2023-04-19T10:17:26.021Z,102481.00
2023-04-19T10:20:06.919Z,102473.00
2023-04-19T10:22:37.853Z,102479.00
2023-04-19T10:25:15.814Z,102469.00
2023-04-19T10:27:49.244Z,102469.00
2023-04-19T10:30:23.375Z,102469.00
2023-04-19T10:32:54.196Z,102468.00
2023-04-19T10:35:23.074Z,102460.00
2023-04-19T10:38:08.722Z,102464.00
2023-04-19T10:40:56.540Z,102454.00
2023-04-19T10:43:24.834Z,102457.00
2023-04-19T10:45:51.972Z,102454.00
2023-04-19T10:48:33.065Z,102458.00
2023-04-19T10:51:00.725Z,102447.00
2023-04-19T10:53:45.563Z,102448.00
2023-04-19T10:56:12.540Z,102445.00
2023-04-19T10:59:13.340Z,102450.00
2023-04-19T11:01:47.089Z,102452.00
2023-04-19T11:04:41.407Z,102445.00
2023-04-19T11:07:08.161Z,102441.00
2023-04-19T11:09:39.555Z,102436.00
2023-04-19T11:12:12.235Z,102438.00
2023-04-19T11:14:46.839Z,102440.00
2023-04-19T11:17:28.353Z,102436.00
2023-04-19T11:20:01.034Z,102439.00
2023-04-19T11:22:38.205Z,102432.00
2023-04-19T11:25:25.175Z,102431.00
2023-04-19T11:27:55.762Z,102425.00
2023-04-19T11:30:29.182Z,102425.00
2023-04-19T11:32:57.374Z,102430.00
2023-04-19T11:35:26.335Z,102425.00
2023-04-19T11:37:54.780Z,102428.00
2023-04-19T11:40:22.566Z,102433.00
2023-04-19T11:43:03.120Z,102411.00
2023-04-19T11:45:36.609Z,102422.00
2023-04-19T11:48:06.248Z,102414.00
2023-04-19T11:50:44.495Z,102410.00
2023-04-19T11:53:17.038Z,102409.00
2023-04-19T11:55:45.738Z,102410.00
2023-04-19T11:58:25.693Z,102407.00
2023-04-19T12:00:52.443Z,102412.00
2023-04-19T12:03:27.140Z,102406.00
2023-04-19T12:05:59.653Z,102405.00
2023-04-19T12:08:33.369Z,102396.00
2023-04-19T12:11:00.597Z,102408.00
2023-04-19T12:13:27.232Z,102397.00
2023-04-19T12:15:53.922Z,102407.00
2023-04-19T12:18:20.568Z,102397.00
2023-04-19T12:20:49.166Z,102394.00
2023-04-19T12:23:17.456Z,102394.00
2023-04-19T12:25:46.606Z,102384.00
2023-04-19T12:28:13.918Z,102384.00
2023-04-19T12:30:41.529Z,102388.00
2023-04-19T12:33:08.963Z,102386.00
2023-04-19T12:35:36.336Z,102385.00
2023-04-19T12:38:03.528Z,102383.00
2023-04-19T12:40:30.731Z,102384.00
2023-04-19T12:42:57.754Z,102371.00
2023-04-19T12:45:24.471Z,102366.00
2023-04-19T12:47:51.206Z,102374.00
2023-04-19T12:50:17.895Z,102364.00
2023-04-19T12:52:45.562Z,102359.00
2023-04-19T12:55:12.452Z,102371.00
2023-04-19T12:57:39.347Z,102357.00
2023-04-19T13:00:07.351Z,102356.00
2023-04-19T13:02:35.325Z,102351.00
2023-04-19T13:05:02.487Z,102356.00
2023-04-19T13:07:29.189Z,102355.00
2023-04-19T13:09:56.965Z,102349.00
2023-04-19T13:12:24.133Z,102351.00
2023-04-19T13:14:52.535Z,102340.00
2023-04-19T13:17:20.245Z,102345.00
2023-04-19T13:19:47.544Z,102336.00
2023-04-19T13:22:14.657Z,102345.00
2023-04-19T13:24:41.300Z,102344.00
2023-04-19T13:27:09.123Z,102339.00
2023-04-19T13:29:36.174Z,102338.00
2023-04-19T13:32:03.273Z,102339.00
2023-04-19T13:34:30.040Z,102337.00
2023-04-19T13:36:57.665Z,102340.00
2023-04-19T13:39:24.343Z,102339.00
2023-04-19T13:41:51.367Z,102344.00
2023-04-19T13:44:18.366Z,102334.00
2023-04-19T13:46:45.183Z,102332.00
2023-04-19T13:49:11.899Z,102329.00
2023-04-19T13:51:48.968Z,102329.00
2023-04-19T13:54:21.256Z,102331.00
2023-04-19T13:56:50.549Z,102329.00
2023-04-19T13:59:18.878Z,102321.00
2023-04-19T14:01:45.944Z,102326.00
2023-04-19T14:04:12.985Z,102320.00
2023-04-19T14:06:39.732Z,102320.00
2023-04-19T14:09:06.835Z,102318.00
2023-04-19T14:11:33.956Z,102324.00
2023-04-19T14:14:00.724Z,102312.00
2023-04-19T14:16:27.482Z,102317.00
2023-04-19T14:18:54.173Z,102312.00
2023-04-19T14:21:20.942Z,102315.00
2023-04-19T14:23:47.601Z,102309.00
2023-04-19T14:26:14.750Z,102304.00
2023-04-19T14:28:41.455Z,102301.00
2023-04-19T14:31:08.196Z,102302.00
2023-04-19T14:33:34.862Z,102297.00
2023-04-19T14:36:01.632Z,102290.00
2023-04-19T14:38:28.239Z,102296.00
2023-04-19T14:40:54.881Z,102288.00
2023-04-19T14:43:21.479Z,102297.00
2023-04-19T14:45:51.915Z,102289.00
2023-04-19T14:48:21.410Z,102290.00
2023-04-19T14:50:48.821Z,102293.00
2023-04-19T14:53:15.769Z,102292.00
2023-04-19T14:55:42.387Z,102296.00
2023-04-19T14:58:09.052Z,102295.00
2023-04-19T15:00:35.805Z,102293.00
2023-04-19T15:03:02.580Z,102293.00
2023-04-19T15:05:29.444Z,102299.00
2023-04-19T15:07:56.083Z,102292.00
2023-04-19T15:10:22.762Z,102286.00
2023-04-19T15:12:49.330Z,102290.00
2023-04-19T15:15:16.200Z,102290.00
2023-04-19T15:17:43.276Z,102291.00
2023-04-19T15:20:10.323Z,102291.00
2023-04-19T15:22:37.012Z,102283.00
2023-04-19T15:25:04.126Z,102289.00
2023-04-19T15:27:31.389Z,102279.00
2023-04-19T15:29:58.086Z,102287.00
2023-04-19T15:32:24.787Z,102287.00
2023-04-19T15:34:51.703Z,102287.00
2023-04-19T15:37:18.513Z,102279.00
2023-04-19T15:39:45.267Z,102286.00
2023-04-19T15:42:12.055Z,102286.00
2023-04-19T15:44:38.674Z,102288.00
2023-04-19T15:47:05.502Z,102277.00
2023-04-19T15:49:32.065Z,102285.00
2023-04-19T15:51:58.652Z,102282.00
2023-04-19T15:54:25.650Z,102283.00
2023-04-19T15:56:52.228Z,102287.00
2023-04-19T15:59:19.014Z,102285.00
2023-04-19T16:01:45.679Z,102284.00
2023-04-19T16:04:12.607Z,102290.00
2023-04-19T16:06:39.458Z,102283.00
2023-04-19T16:09:07.686Z,102281.00
2023-04-19T16:11:34.245Z,102281.00
2023-04-19T16:14:01.240Z,102282.00
2023-04-19T16:16:31.105Z,102277.00
2023-04-19T16:18:57.901Z,102272.00
2023-04-19T16:21:26.231Z,102272.00
2023-04-19T16:23:52.796Z,102270.00
2023-04-19T16:26:19.403Z,102264.00
2023-04-19T16:28:46.840Z,102273.00
2023-04-19T16:31:13.429Z,102272.00
2023-04-19T16:33:40.091Z,102261.00
2023-04-19T16:36:06.703Z,102259.00
2023-04-19T16:38:33.359Z,102259.00
2023-04-19T16:41:02.189Z,102259.00
2023-04-19T16:43:28.816Z,102261.00
2023-04-19T16:45:55.403Z,102261.00
2023-04-19T16:48:22.159Z,102266.00
2023-04-19T16:50:49.421Z,102263.00
2023-04-19T16:53:16.411Z,102276.00
2023-04-19T16:55:43.097Z,102275.00
2023-04-19T16:58:09.708Z,102265.00
2023-04-19T17:00:36.301Z,102264.00
2023-04-19T17:03:03.129Z,102256.00
2023-04-19T17:05:29.880Z,102249.00
2023-04-19T17:07:57.070Z,102254.00
2023-04-19T17:10:24.634Z,102248.00
2023-04-19T17:12:51.269Z,102248.00
2023-04-19T17:15:18.985Z,102250.00
2023-04-19T17:17:45.712Z,102249.00
2023-04-19T17:20:13.473Z,102251.00
2023-04-19T17:22:40.112Z,102251.00
2023-04-19T17:25:06.933Z,102247.00
2023-04-19T17:27:33.550Z,102251.00
2023-04-19T17:30:00.219Z,102239.00
2023-04-19T17:32:26.849Z,102244.00
2023-04-19T17:34:53.516Z,102241.00
2023-04-19T17:37:20.999Z,102227.00
2023-04-19T17:39:47.535Z,102240.00
2023-04-19T17:42:14.154Z,102237.00
2023-04-19T17:44:40.919Z,102248.00
2023-04-19T17:47:07.538Z,102242.00
2023-04-19T17:49:34.252Z,102251.00
2023-04-19T17:52:00.810Z,102241.00
2023-04-19T17:54:27.448Z,102241.00
2023-04-19T17:56:54.571Z,102240.00
2023-04-19T17:59:21.273Z,102240.00
2023-04-19T18:01:48.066Z,102237.00
2023-04-19T18:04:17.952Z,102245.00
2023-04-19T18:06:45.123Z,102233.00
2023-04-19T18:09:13.210Z,102234.00
2023-04-19T18:11:40.346Z,102241.00
2023-04-19T18:14:07.038Z,102242.00
2023-04-19T18:16:33.736Z,102240.00
2023-04-19T18:19:00.389Z,102244.00
2023-04-19T18:21:27.317Z,102244.00
2023-04-19T18:23:54.843Z,102238.00
2023-04-19T18:26:24.300Z,102247.00
2023-04-19T18:28:50.915Z,102248.00
2023-04-19T18:31:17.591Z,102240.00
2023-04-19T18:33:44.219Z,102251.00
2023-04-19T18:36:11.207Z,102254.00
2023-04-19T18:38:37.887Z,102250.00
2023-04-19T18:41:04.515Z,102259.00
2023-04-19T18:43:31.651Z,102255.00
2023-04-19T18:45:59.217Z,102251.00
2023-04-19T18:48:28.181Z,102257.00
2023-04-19T18:50:55.281Z,102252.00
2023-04-19T18:53:22.031Z,102252.00
2023-04-19T18:55:48.807Z,102248.00
2023-04-19T18:58:15.503Z,102260.00
2023-04-19T19:00:42.262Z,102261.00
2023-04-19T19:03:25.214Z,102264.00
2023-04-19T19:05:56.466Z,102272.00
2023-04-19T19:08:23.391Z,102270.00
2023-04-19T19:11:16.363Z,102274.00
2023-04-19T19:13:36.716Z,102270.00
2023-04-19T19:16:05.657Z,102275.00
2023-04-19T19:18:32.617Z,102271.00
2023-04-19T19:21:03.231Z,102276.00
2023-04-19T19:23:35.730Z,102264.00
2023-04-19T19:26:04.011Z,102269.00
2023-04-19T19:28:30.638Z,102269.00
2023-04-19T19:30:57.283Z,102279.00
2023-04-19T19:33:24.037Z,102280.00
2023-04-19T19:35:50.776Z,102280.00
2023-04-19T19:38:17.365Z,102281.00
2023-04-19T19:41:20.699Z,102289.00
2023-04-19T19:43:30.650Z,102280.00
2023-04-19T19:45:57.286Z,102280.00
2023-04-19T19:48:25.357Z,102277.00
2023-04-19T19:53:21.742Z,102273.00
2023-04-19T19:55:48.355Z,102274.00
2023-04-19T19:58:42.965Z,102275.00
2023-04-19T20:01:03.374Z,102279.00
2023-04-19T20:03:37.465Z,102281.00
2023-04-19T20:08:40.126Z,102281.00
2023-04-19T20:11:09.464Z,102278.00
2023-04-19T20:13:36.694Z,102283.00
2023-04-19T20:16:03.524Z,102282.00
2023-04-19T20:18:30.413Z,102281.00
2023-04-19T20:20:57.912Z,102290.00
2023-04-19T20:23:24.836Z,102280.00
2023-04-19T20:25:52.057Z,102286.00
2023-04-19T20:28:18.827Z,102292.00
2023-04-19T20:30:45.687Z,102285.00
2023-04-19T20:33:12.387Z,102281.00
2023-04-19T20:35:39.126Z,102279.00
2023-04-19T20:38:07.774Z,102287.00
2023-04-19T20:40:34.458Z,102286.00
2023-04-19T20:43:01.152Z,102289.00
2023-04-19T20:45:27.883Z,102288.00
2023-04-19T20:47:55.729Z,102282.00
2023-04-19T20:50:22.539Z,102285.00
2023-04-19T20:52:49.469Z,102280.00
2023-04-19T20:55:16.529Z,102279.00
2023-04-19T20:57:43.255Z,102279.00
2023-04-19T21:00:10.609Z,102282.00
2023-04-19T21:02:38.040Z,102282.00
2023-04-19T21:05:05.052Z,102278.00
2023-04-19T21:07:31.674Z,102283.00
2023-04-19T21:09:58.254Z,102282.00
2023-04-19T21:12:24.859Z,102287.00
2023-04-19T21:14:52.856Z,102287.00
2023-04-19T21:17:20.413Z,102289.00
2023-04-19T21:19:47.121Z,102291.00
2023-04-19T21:22:13.689Z,102294.00
2023-04-19T21:24:40.319Z,102287.00
2023-04-19T21:27:06.989Z,102289.00
2023-04-19T21:29:33.813Z,102294.00
2023-04-19T21:32:00.472Z,102298.00
2023-04-19T21:34:27.274Z,102292.00
2023-04-19T21:36:53.961Z,102297.00
2023-04-19T21:39:20.704Z,102292.00
2023-04-19T21:41:47.410Z,102294.00
2023-04-19T21:44:14.083Z,102291.00
2023-04-19T21:46:40.961Z,102296.00
2023-04-19T21:49:07.588Z,102292.00
2023-04-19T21:51:34.226Z,102286.00
2023-04-19T21:54:00.822Z,102298.00
2023-04-19T21:56:27.590Z,102297.00
2023-04-19T21:58:54.265Z,102292.00
2023-04-19T22:01:21.052Z,102297.00
2023-04-19T22:03:48.076Z,102295.00
2023-04-19T22:06:17.198Z,102297.00
2023-04-19T22:08:44.057Z,102293.00
2023-04-19T22:11:12.073Z,102296.00
2023-04-19T22:13:38.798Z,102295.00
2023-04-19T22:16:05.944Z,102301.00
2023-04-19T22:18:34.658Z,102299.00
2023-04-19T22:21:01.501Z,102296.00
2023-04-19T22:23:28.068Z,102293.00
2023-04-19T22:25:54.829Z,102296.00
2023-04-19T22:28:21.552Z,102292.00
2023-04-19T22:30:48.350Z,102286.00
2023-04-19T22:33:14.977Z,102292.00
2023-04-19T22:35:41.667Z,102292.00
2023-04-19T22:38:08.288Z,102283.00
2023-04-19T22:40:34.899Z,102293.00
2023-04-19T22:43:01.745Z,102286.00
2023-04-19T22:45:28.458Z,102291.00
2023-04-19T22:47:55.148Z,102292.00
2023-04-19T22:50:23.630Z,102288.00
2023-04-19T22:52:50.870Z,102287.00
2023-04-19T22:55:17.634Z,102293.00
2023-04-19T22:57:44.343Z,102284.00
2023-04-19T23:00:11.527Z,102285.00
2023-04-19T23:02:39.093Z,102285.00
2023-04-19T23:05:06.492Z,102287.00
2023-04-19T23:07:33.315Z,102287.00
2023-04-19T23:10:01.029Z,102279.00
2023-04-19T23:12:27.718Z,102283.00
2023-04-19T23:14:55.269Z,102285.00
2023-04-19T23:17:21.891Z,102282.00
2023-04-19T23:19:48.511Z,102288.00
2023-04-19T23:22:15.230Z,102290.00
2023-04-19T23:24:41.813Z,102286.00
2023-04-19T23:27:08.533Z,102293.00
2023-04-19T23:29:35.228Z,102294.00
2023-04-19T23:32:02.114Z,102297.00
2023-04-19T23:34:28.725Z,102294.00
2023-04-19T23:36:56.799Z,102289.00
2023-04-19T23:39:23.464Z,102288.00
2023-04-19T23:41:50.384Z,102286.00
2023-04-19T23:44:17.078Z,102282.00
2023-04-19T23:46:43.883Z,102289.00
2023-04-19T23:49:10.625Z,102275.00
2023-04-19T23:51:37.463Z,102284.00
2023-04-19T23:54:04.289Z,102280.00
2023-04-19T23:56:31.189Z,102285.00
2023-04-19T23:58:57.846Z,102279.00
